Time;durP1;ratioP1;P1;durP2;ratioP2;P2;SDS_P1;SDS_P2;PMS_P1;PMS_P2;Temp;Humidity;BMP_temperature;BMP_pressure;BME280_temperature;BME280_humidity;BME280_pressure;Samples;Min_cycle;Max_cycle;Signal;HPM_P1;HPM_P2
2022/07/23 00:00:30;;;;;;;10.23;9.07;;;24.00;82.60;;;;;;5074808;28;20491;-67
2022/07/23 00:02:58;;;;;;;11.50;10.30;;;24.00;82.80;;;;;;5074443;28;20440;-67
2022/07/23 00:05:26;;;;;;;10.43;9.43;;;24.00;83.10;;;;;;5074483;28;20436;-67
2022/07/23 00:07:55;;;;;;;14.90;9.90;;;24.00;81.70;;;;;;5074724;28;20490;-67
2022/07/23 00:10:25;;;;;;;9.97;8.63;;;24.00;80.90;;;;;;5074559;28;20464;-67
2022/07/23 00:12:52;;;;;;;9.40;8.50;;;24.00;81.40;;;;;;5073434;28;20805;-67
2022/07/23 00:15:19;;;;;;;11.37;10.03;;;23.90;80.20;;;;;;5073955;28;20444;-67
2022/07/23 00:17:48;;;;;;;11.27;9.30;;;23.80;80.00;;;;;;5073835;28;20440;-67
2022/07/23 00:20:16;;;;;;;10.07;8.80;;;23.80;80.50;;;;;;5074205;28;20850;-67
2022/07/23 00:22:48;;;;;;;9.87;8.97;;;23.80;80.60;;;;;;5074179;28;20467;-67
2022/07/23 00:25:16;;;;;;;10.83;9.47;;;23.80;80.50;;;;;;5074407;28;20493;-67
2022/07/23 00:27:44;;;;;;;11.67;10.47;;;23.80;80.60;;;;;;5074578;28;20515;-67
2022/07/23 00:30:13;;;;;;;11.70;10.50;;;23.80;80.70;;;;;;5074186;28;20436;-68
2022/07/23 00:32:50;;;;;;;10.70;8.40;;;23.80;80.90;;;;;;5062696;28;20505;-66
2022/07/23 00:35:25;;;;;;;10.30;8.90;;;23.80;81.90;;;;;;5074246;28;21071;-67
2022/07/23 00:37:54;;;;;;;10.33;8.67;;;23.80;81.90;;;;;;5054158;28;20442;-66
2022/07/23 00:40:22;;;;;;;10.70;9.03;;;23.80;82.10;;;;;;5054739;28;20583;-67
2022/07/23 00:42:50;;;;;;;10.37;8.80;;;23.70;82.40;;;;;;5063302;28;20440;-66
2022/07/23 00:45:19;;;;;;;11.43;9.93;;;23.70;82.40;;;;;;5074167;28;20440;-67
2022/07/23 00:47:46;;;;;;;12.53;9.03;;;23.70;82.40;;;;;;5073740;28;20567;-66
2022/07/23 00:50:15;;;;;;;11.03;9.93;;;23.80;82.50;;;;;;5074191;28;20439;-66
2022/07/23 00:52:48;;;;;;;10.90;9.90;;;23.80;82.30;;;;;;5073206;28;20444;-66
2022/07/23 00:55:15;;;;;;;10.90;9.80;;;23.80;82.30;;;;;;5073814;28;20968;-66
2022/07/23 00:57:44;;;;;;;10.53;8.77;;;23.70;76.50;;;;;;5073552;28;20859;-67
2022/07/23 01:00:14;;;;;;;9.70;7.30;;;23.60;73.20;;;;;;5073883;28;20436;-67
2022/07/23 01:02:42;;;;;;;8.67;7.47;;;23.50;69.60;;;;;;5072999;28;20440;-66
2022/07/23 01:05:10;;;;;;;10.13;7.40;;;23.50;67.50;;;;;;5073450;28;20477;-66
2022/07/23 01:07:37;;;;;;;9.40;6.20;;;23.40;63.50;;;;;;5073762;28;20889;-66
2022/07/23 01:10:30;;;;;;;8.27;6.00;;;23.30;61.90;;;;;;5073306;28;20771;-66
2022/07/23 01:12:55;;;;;;;8.10;6.10;;;23.20;60.10;;;;;;5073153;28;20451;-67
2022/07/23 01:15:23;;;;;;;9.47;5.27;;;23.10;60.50;;;;;;5073102;28;20527;-66
2022/07/23 01:17:50;;;;;;;7.07;4.90;;;23.00;59.10;;;;;;5073228;28;20476;-67
2022/07/23 01:20:20;;;;;;;7.40;5.20;;;23.00;59.60;;;;;;5073515;28;20435;-67
2022/07/23 01:22:49;;;;;;;6.93;5.03;;;23.00;61.00;;;;;;5072857;28;20464;-66
2022/07/23 01:25:18;;;;;;;7.47;5.40;;;23.00;59.80;;;;;;5072951;28;20444;-67
2022/07/23 01:27:47;;;;;;;6.90;5.03;;;22.90;59.70;;;;;;5072761;28;20506;-66
2022/07/23 01:30:17;;;;;;;5.63;4.30;;;22.90;60.00;;;;;;5073299;28;20436;-66
2022/07/23 01:32:44;;;;;;;7.90;3.87;;;22.90;60.10;;;;;;5072871;28;20424;-66
2022/07/23 01:35:12;;;;;;;5.40;4.20;;;22.90;59.80;;;;;;5073025;28;20515;-66
2022/07/23 01:37:40;;;;;;;4.00;3.60;;;22.90;60.10;;;;;;5072688;28;20494;-66
2022/07/23 01:40:09;;;;;;;4.30;3.43;;;22.90;60.10;;;;;;5073013;28;20444;-66
2022/07/23 01:42:36;;;;;;;4.73;3.00;;;22.90;60.50;;;;;;5072442;28;21019;-67
2022/07/23 01:45:08;;;;;;;3.60;2.73;;;22.90;60.60;;;;;;5071789;28;20440;-73
2022/07/23 01:47:37;;;;;;;3.70;2.63;;;22.90;60.90;;;;;;5072708;28;20481;-66
2022/07/23 01:50:04;;;;;;;4.27;3.50;;;23.00;61.10;;;;;;5073013;28;20443;-66
2022/07/23 01:52:34;;;;;;;5.10;3.10;;;23.00;61.00;;;;;;5072321;28;20447;-66
2022/07/23 01:55:01;;;;;;;4.40;3.40;;;23.00;61.00;;;;;;5072354;28;20439;-66
2022/07/23 01:57:30;;;;;;;3.97;2.70;;;23.00;60.80;;;;;;5073044;28;20791;-66
2022/07/23 01:59:57;;;;;;;3.10;2.33;;;23.00;59.90;;;;;;5072134;28;21023;-67
2022/07/23 02:02:26;;;;;;;4.60;2.70;;;22.80;59.20;;;;;;5072703;28;20494;-66
2022/07/23 02:04:53;;;;;;;3.23;2.47;;;22.70;59.10;;;;;;5072303;28;20539;-66
2022/07/23 02:07:21;;;;;;;5.40;3.00;;;22.70;59.60;;;;;;5072584;28;20497;-66
2022/07/23 02:09:48;;;;;;;4.73;3.40;;;22.70;59.80;;;;;;5072454;28;20439;-66
2022/07/23 02:12:15;;;;;;;4.40;3.40;;;22.50;59.10;;;;;;5072718;28;20440;-66
2022/07/23 02:14:44;;;;;;;5.20;3.70;;;22.50;59.80;;;;;;5072492;28;20436;-66
2022/07/23 02:17:11;;;;;;;4.20;3.67;;;22.50;59.80;;;;;;5072417;28;20983;-66
2022/07/23 02:19:38;;;;;;;5.27;3.80;;;22.50;60.60;;;;;;5072590;28;20436;-66
2022/07/23 02:22:05;;;;;;;5.30;3.90;;;22.50;60.20;;;;;;5071847;28;20447;-66
2022/07/23 02:24:35;;;;;;;3.63;3.20;;;22.50;60.50;;;;;;5072037;28;20478;-66
2022/07/23 02:27:02;;;;;;;5.10;4.57;;;22.50;60.90;;;;;;5071581;28;20560;-66
2022/07/23 02:29:30;;;;;;;8.10;5.80;;;22.40;62.30;;;;;;5071993;28;20532;-66
2022/07/23 02:31:59;;;;;;;6.77;4.97;;;22.30;63.20;;;;;;5072276;28;20444;-66
2022/07/23 02:34:27;;;;;;;6.97;5.27;;;22.30;64.30;;;;;;5072481;28;20436;-64
2022/07/23 02:36:55;;;;;;;8.00;6.40;;;22.30;64.90;;;;;;5069923;28;20504;-64
2022/07/23 02:39:22;;;;;;;6.50;5.13;;;22.10;66.40;;;;;;5071389;28;20436;-65
2022/07/23 02:41:49;;;;;;;7.90;5.10;;;22.00;67.90;;;;;;5072503;28;20439;-64
2022/07/23 02:44:17;;;;;;;5.93;5.33;;;21.80;68.50;;;;;;5071735;28;20482;-65
2022/07/23 02:46:44;;;;;;;8.73;6.30;;;21.80;68.90;;;;;;5072199;28;20446;-64
2022/07/23 02:49:13;;;;;;;11.10;5.80;;;21.60;69.90;;;;;;5071382;28;20499;-64
2022/07/23 02:51:42;;;;;;;7.67;6.07;;;21.50;71.80;;;;;;5072053;28;20803;-64
2022/07/23 02:54:10;;;;;;;6.70;5.43;;;21.40;71.60;;;;;;5071777;28;20475;-64
2022/07/23 02:56:38;;;;;;;7.10;5.70;;;21.40;72.00;;;;;;5071946;28;20447;-64
2022/07/23 02:59:05;;;;;;;6.83;5.60;;;21.40;73.60;;;;;;5071015;28;20434;-64
2022/07/23 03:01:36;;;;;;;8.70;5.73;;;21.40;73.40;;;;;;5071662;28;20525;-64
2022/07/23 03:04:04;;;;;;;6.37;5.40;;;21.40;74.20;;;;;;5072213;28;20487;-66
2022/07/23 03:06:33;;;;;;;7.77;5.30;;;21.30;73.70;;;;;;5071519;28;20446;-64
2022/07/23 03:09:00;;;;;;;6.67;5.97;;;21.20;74.20;;;;;;5071719;28;20574;-64
2022/07/23 03:11:29;;;;;;;7.57;5.83;;;21.20;75.10;;;;;;5071535;28;20461;-64
2022/07/23 03:13:57;;;;;;;6.47;5.77;;;21.20;76.00;;;;;;5071894;28;20441;-66
2022/07/23 03:16:24;;;;;;;6.80;5.37;;;21.00;76.90;;;;;;5070480;28;20927;-66
2022/07/23 03:18:51;;;;;;;8.03;6.90;;;21.10;77.50;;;;;;5072052;28;20464;-66
2022/07/23 03:21:18;;;;;;;9.17;6.07;;;21.10;77.20;;;;;;5071367;28;20996;-66
2022/07/23 03:23:47;;;;;;;5.57;4.93;;;21.10;77.60;;;;;;5071234;28;20465;-65
2022/07/23 03:26:14;;;;;;;7.63;6.93;;;21.10;77.10;;;;;;5071569;28;20432;-65
2022/07/23 03:28:41;;;;;;;8.43;5.23;;;21.10;76.00;;;;;;5071882;28;20496;-66
2022/07/23 03:31:08;;;;;;;7.60;6.20;;;21.10;77.10;;;;;;5071459;28;20442;-65
2022/07/23 03:33:35;;;;;;;7.83;5.80;;;21.10;78.80;;;;;;5071436;28;20445;-65
2022/07/23 03:36:03;;;;;;;8.30;6.67;;;21.20;79.30;;;;;;5071059;28;20459;-66
2022/07/23 03:38:30;;;;;;;7.33;6.60;;;21.30;78.10;;;;;;5071932;28;20435;-65
2022/07/23 03:40:59;;;;;;;11.83;8.93;;;21.30;78.60;;;;;;5071495;28;20447;-66
2022/07/23 03:43:26;;;;;;;7.63;6.83;;;21.40;79.10;;;;;;5071655;28;20445;-65
2022/07/23 03:45:53;;;;;;;9.10;7.30;;;21.20;81.10;;;;;;5071205;28;20850;-65
2022/07/23 03:48:20;;;;;;;9.00;8.10;;;21.20;81.80;;;;;;5073514;28;20485;-66
2022/07/23 03:50:47;;;;;;;10.00;7.60;;;21.10;82.20;;;;;;5074768;28;20840;-66
2022/07/23 03:53:14;;;;;;;8.80;7.43;;;21.00;84.50;;;;;;5074896;28;20507;-66
2022/07/23 03:55:42;;;;;;;8.73;7.50;;;21.00;85.60;;;;;;5074661;28;20428;-65
2022/07/23 03:58:10;;;;;;;8.83;7.97;;;21.00;86.70;;;;;;5074715;28;20449;-65
2022/07/23 04:00:37;;;;;;;9.87;8.00;;;21.00;86.70;;;;;;5074744;28;20805;-67
2022/07/23 04:03:04;;;;;;;12.53;8.10;;;21.10;86.90;;;;;;5075281;28;20444;-65
2022/07/23 04:05:32;;;;;;;10.30;7.80;;;21.20;87.50;;;;;;5074771;28;20438;-66
2022/07/23 04:07:59;;;;;;;9.53;7.93;;;21.20;87.50;;;;;;5074651;28;20504;-65
2022/07/23 04:10:26;;;;;;;12.83;8.20;;;21.30;87.40;;;;;;5074711;28;20941;-66
2022/07/23 04:12:54;;;;;;;12.23;8.30;;;21.40;87.70;;;;;;5074983;28;20438;-66
2022/07/23 04:15:22;;;;;;;13.13;7.83;;;21.50;87.80;;;;;;5074543;28;20444;-66
2022/07/23 04:17:50;;;;;;;7.73;7.03;;;21.50;87.90;;;;;;5074931;28;20442;-66
2022/07/23 04:20:17;;;;;;;12.57;7.77;;;21.50;88.70;;;;;;5074632;28;20516;-69
2022/07/23 04:22:44;;;;;;;12.07;7.90;;;21.50;88.80;;;;;;5074903;28;20450;-66
2022/07/23 04:25:13;;;;;;;8.67;7.57;;;21.50;87.90;;;;;;5074295;28;20443;-66
2022/07/23 04:27:40;;;;;;;9.00;7.87;;;21.50;88.20;;;;;;5074803;28;20446;-67
2022/07/23 04:30:09;;;;;;;9.40;8.50;;;21.50;88.90;;;;;;5074318;28;20517;-67
2022/07/23 04:32:38;;;;;;;10.47;8.50;;;21.50;89.80;;;;;;5074750;28;20523;-67
2022/07/23 04:35:09;;;;;;;9.23;7.27;;;21.50;90.00;;;;;;5074007;28;20500;-66
2022/07/23 04:37:37;;;;;;;8.83;8.00;;;21.50;90.00;;;;;;5074869;28;20504;-66
2022/07/23 04:40:05;;;;;;;9.40;7.27;;;21.50;89.90;;;;;;5074352;28;20463;-66
2022/07/23 04:42:32;;;;;;;9.40;8.50;;;21.60;90.00;;;;;;5073987;28;20443;-66
2022/07/23 04:45:00;;;;;;;8.77;7.87;;;21.60;90.20;;;;;;5074009;28;20525;-68
2022/07/23 04:47:27;;;;;;;8.87;7.83;;;21.60;90.40;;;;;;5074442;28;20439;-68
2022/07/23 04:49:55;;;;;;;9.23;8.33;;;21.70;90.30;;;;;;5074284;28;20534;-68
2022/07/23 04:52:22;;;;;;;9.40;6.50;;;21.70;90.10;;;;;;5073814;28;20442;-68
2022/07/23 04:54:50;;;;;;;9.93;7.70;;;21.80;90.20;;;;;;5073956;28;20446;-68
2022/07/23 04:57:17;;;;;;;7.80;7.00;;;21.80;89.60;;;;;;5074257;28;20922;-68
2022/07/23 04:59:44;;;;;;;9.90;7.83;;;21.80;88.70;;;;;;5073364;28;20496;-68
2022/07/23 05:02:11;;;;;;;8.07;7.07;;;21.80;88.80;;;;;;5073979;28;20459;-68
2022/07/23 05:04:39;;;;;;;8.83;7.93;;;21.80;88.60;;;;;;5073495;28;20447;-68
2022/07/23 05:07:12;;;;;;;7.47;6.50;;;21.80;88.30;;;;;;5074179;28;20443;-68
2022/07/23 05:09:41;;;;;;;8.00;7.20;;;21.70;87.80;;;;;;5073573;28;20572;-68
2022/07/23 05:12:09;;;;;;;7.90;6.80;;;21.70;87.80;;;;;;5073866;28;20938;-68
2022/07/23 05:14:36;;;;;;;8.73;6.50;;;21.80;88.20;;;;;;5072971;28;20446;-68
2022/07/23 05:17:03;;;;;;;10.37;6.83;;;21.80;88.10;;;;;;5073745;28;20508;-68
2022/07/23 05:19:33;;;;;;;12.23;7.60;;;21.80;87.90;;;;;;5073287;28;20825;-68
2022/07/23 05:22:00;;;;;;;7.70;6.77;;;21.80;87.00;;;;;;5073944;28;20446;-68
2022/07/23 05:24:29;;;;;;;8.87;6.47;;;21.80;86.00;;;;;;5073044;28;20466;-67
2022/07/23 05:26:56;;;;;;;7.60;6.33;;;21.80;85.80;;;;;;5073168;28;20438;-68
2022/07/23 05:29:23;;;;;;;7.83;6.10;;;21.80;86.00;;;;;;5073624;28;20813;-68
2022/07/23 05:31:51;;;;;;;8.93;7.80;;;21.80;86.10;;;;;;5073457;28;20473;-68
2022/07/23 05:34:18;;;;;;;8.27;7.37;;;21.90;86.50;;;;;;5072653;28;20435;-71
2022/07/23 05:36:48;;;;;;;9.53;6.90;;;21.90;86.20;;;;;;5072947;28;20443;-71
2022/07/23 05:39:15;;;;;;;8.37;6.70;;;21.90;86.30;;;;;;5073074;28;20971;-68
2022/07/23 05:41:44;;;;;;;13.00;7.63;;;21.90;86.60;;;;;;5073499;28;20436;-68
2022/07/23 05:44:12;;;;;;;7.40;6.60;;;22.00;86.90;;;;;;5073189;28;20446;-68
2022/07/23 05:46:39;;;;;;;8.10;7.30;;;22.00;86.60;;;;;;5072837;28;20500;-69
2022/07/23 05:49:06;;;;;;;10.80;7.37;;;22.00;86.50;;;;;;5072868;28;20483;-68
2022/07/23 05:51:33;;;;;;;10.53;6.70;;;22.00;86.50;;;;;;5073177;28;20933;-68
2022/07/23 05:54:03;;;;;;;8.30;6.67;;;22.00;86.50;;;;;;5072927;28;20522;-70
2022/07/23 05:56:30;;;;;;;7.90;6.90;;;22.00;86.10;;;;;;5053223;28;20455;-68
2022/07/23 05:58:59;;;;;;;9.60;6.60;;;22.00;86.90;;;;;;5052887;28;20581;-68
2022/07/23 06:01:26;;;;;;;7.70;6.90;;;22.00;86.10;;;;;;5072377;28;20442;-68
2022/07/23 06:03:54;;;;;;;10.70;7.33;;;22.00;86.40;;;;;;5072911;28;20432;-68
2022/07/23 06:06:26;;;;;;;8.87;6.73;;;22.00;86.90;;;;;;5072517;28;20830;-67
2022/07/23 06:08:53;;;;;;;8.50;7.03;;;22.00;86.40;;;;;;5072826;28;20490;-66
2022/07/23 06:11:21;;;;;;;11.63;7.60;;;22.00;85.80;;;;;;5072847;28;20447;-66
2022/07/23 06:13:48;;;;;;;9.20;8.30;;;22.00;86.00;;;;;;5072562;28;20964;-67
2022/07/23 06:16:17;;;;;;;8.30;7.50;;;22.00;86.40;;;;;;5072709;28;20448;-66
2022/07/23 06:18:44;;;;;;;12.73;7.27;;;21.90;86.60;;;;;;5072880;28;20829;-66
2022/07/23 06:21:14;;;;;;;11.17;8.57;;;21.90;87.20;;;;;;5071569;28;20460;-73
2022/07/23 06:23:42;;;;;;;8.70;7.80;;;21.80;87.20;;;;;;5058320;28;20880;-66
2022/07/23 06:26:09;;;;;;;9.27;8.37;;;21.70;87.30;;;;;;5071025;28;20442;-66
2022/07/23 06:28:36;;;;;;;8.53;7.37;;;21.50;87.80;;;;;;5071583;28;20445;-66
2022/07/23 06:31:04;;;;;;;9.70;8.17;;;21.40;87.90;;;;;;5071255;28;20483;-66
2022/07/23 06:33:32;;;;;;;8.40;7.40;;;21.30;88.60;;;;;;5071429;28;20941;-66
2022/07/23 06:36:01;;;;;;;8.50;7.70;;;21.30;87.90;;;;;;5071874;28;20438;-66
2022/07/23 06:38:29;;;;;;;8.40;7.60;;;21.30;87.50;;;;;;5071428;28;20443;-66
2022/07/23 06:40:56;;;;;;;9.00;8.20;;;21.30;87.40;;;;;;5071699;28;20511;-66
2022/07/23 06:43:23;;;;;;;8.00;7.20;;;21.30;87.50;;;;;;5071319;28;20435;-67
2022/07/23 06:45:50;;;;;;;7.77;7.07;;;21.30;88.10;;;;;;5071819;28;20440;-67
2022/07/23 06:48:17;;;;;;;9.93;7.37;;;21.30;88.70;;;;;;5071261;28;20439;-67
2022/07/23 06:50:46;;;;;;;10.23;6.90;;;21.30;89.80;;;;;;5071736;28;20578;-66
2022/07/23 06:53:13;;;;;;;9.20;7.07;;;21.30;90.00;;;;;;5071303;28;20443;-66
2022/07/23 06:55:41;;;;;;;11.00;7.60;;;21.40;90.80;;;;;;5071404;28;20884;-66
2022/07/23 06:58:09;;;;;;;11.17;7.60;;;21.60;90.90;;;;;;5071049;28;20469;-67
2022/07/23 07:00:37;;;;;;;8.00;7.10;;;21.70;90.90;;;;;;5071450;28;20492;-66
2022/07/23 07:03:04;;;;;;;8.80;7.30;;;21.70;90.50;;;;;;5071154;28;20531;-66
2022/07/23 07:05:31;;;;;;;8.33;7.33;;;21.80;90.50;;;;;;5071497;28;20443;-66
2022/07/23 07:08:00;;;;;;;8.30;7.20;;;21.90;90.30;;;;;;5071454;28;20437;-66
2022/07/23 07:10:27;;;;;;;7.87;6.33;;;21.90;90.20;;;;;;5071952;28;20490;-66
2022/07/23 07:12:54;;;;;;;7.40;6.70;;;22.00;89.50;;;;;;5071966;28;20507;-66
2022/07/23 07:15:21;;;;;;;8.17;6.87;;;22.00;88.90;;;;;;5072061;28;20844;-67
2022/07/23 07:17:48;;;;;;;8.50;6.93;;;22.10;89.10;;;;;;5073040;28;20526;-66
2022/07/23 07:20:16;;;;;;;9.07;8.17;;;22.00;90.10;;;;;;5076042;28;20448;-67
2022/07/23 07:22:43;;;;;;;9.80;8.43;;;22.10;90.00;;;;;;5070297;28;20420;-66
2022/07/23 07:25:12;;;;;;;8.60;7.77;;;22.00;90.30;;;;;;5074222;28;20548;-66
2022/07/23 07:27:39;;;;;;;11.43;8.03;;;22.00;90.10;;;;;;5073863;28;20497;-67
2022/07/23 07:30:11;;;;;;;8.97;7.40;;;22.10;90.10;;;;;;5073496;28;21114;-66
2022/07/23 07:32:39;;;;;;;8.80;6.30;;;22.20;90.10;;;;;;5071127;28;20443;-66
2022/07/23 07:35:07;;;;;;;8.23;6.97;;;22.10;89.50;;;;;;5073711;28;20440;-67
2022/07/23 07:37:34;;;;;;;7.63;6.83;;;22.10;89.90;;;;;;5073736;28;20438;-67
2022/07/23 07:40:01;;;;;;;8.40;7.50;;;22.10;89.50;;;;;;5073637;28;20988;-66
2022/07/23 07:42:30;;;;;;;8.03;7.23;;;22.20;89.80;;;;;;5073024;28;20438;-66
2022/07/23 07:44:57;;;;;;;6.47;5.80;;;22.20;89.60;;;;;;5073548;28;20483;-66
2022/07/23 07:47:24;;;;;;;9.03;7.60;;;22.30;90.00;;;;;;5073227;28;20435;-66
2022/07/23 07:49:51;;;;;;;7.20;6.40;;;22.60;89.90;;;;;;5073292;28;20879;-66
2022/07/23 07:52:18;;;;;;;6.73;6.03;;;22.80;88.80;;;;;;5073480;28;20447;-68
2022/07/23 07:54:45;;;;;;;7.30;6.03;;;23.00;87.30;;;;;;5073290;28;20457;-67
2022/07/23 07:57:12;;;;;;;8.37;6.47;;;23.10;86.80;;;;;;5069866;28;20464;-67
2022/07/23 07:59:40;;;;;;;7.97;6.57;;;23.20;86.00;;;;;;5073481;28;20436;-66
2022/07/23 08:02:08;;;;;;;6.33;5.73;;;23.30;84.80;;;;;;5073131;28;20934;-67
2022/07/23 08:04:35;;;;;;;6.63;6.03;;;23.20;83.90;;;;;;5072410;28;20443;-68
2022/07/23 08:07:02;;;;;;;9.10;7.47;;;23.20;83.50;;;;;;5073395;28;20510;-66
2022/07/23 08:09:29;;;;;;;6.63;5.80;;;23.30;84.40;;;;;;5072636;28;20923;-67
2022/07/23 08:11:56;;;;;;;8.93;7.30;;;23.40;84.40;;;;;;5072904;28;20926;-66
2022/07/23 08:14:23;;;;;;;6.17;5.57;;;23.40;82.80;;;;;;5072634;28;20432;-67
2022/07/23 08:16:52;;;;;;;6.53;5.90;;;23.40;81.80;;;;;;5073032;28;20444;-67
2022/07/23 08:19:19;;;;;;;8.70;7.90;;;23.30;81.90;;;;;;5073134;28;20447;-67
2022/07/23 08:21:46;;;;;;;6.93;6.17;;;23.30;81.80;;;;;;5072510;28;20842;-67
2022/07/23 08:24:13;;;;;;;8.03;7.20;;;23.30;82.80;;;;;;5072385;28;20520;-67
2022/07/23 08:26:41;;;;;;;9.13;6.50;;;23.30;83.20;;;;;;5072772;28;21008;-66
2022/07/23 08:29:08;;;;;;;8.97;6.00;;;23.40;83.60;;;;;;5072591;28;20441;-66
2022/07/23 08:31:35;;;;;;;7.00;5.70;;;23.40;83.80;;;;;;5072972;28;20443;-67
2022/07/23 08:34:04;;;;;;;8.90;6.70;;;23.50;83.20;;;;;;5071330;28;20480;-67
2022/07/23 08:36:32;;;;;;;6.57;5.97;;;23.50;83.30;;;;;;5071569;28;20436;-67
2022/07/23 08:38:59;;;;;;;7.57;5.93;;;23.60;83.70;;;;;;5069059;28;20443;-67
2022/07/23 08:41:26;;;;;;;8.33;5.83;;;23.60;84.90;;;;;;5070929;28;20439;-68
2022/07/23 08:43:54;;;;;;;7.00;6.30;;;23.50;83.90;;;;;;5071897;28;20432;-68
2022/07/23 08:46:21;;;;;;;9.40;6.70;;;23.50;84.10;;;;;;5072385;28;20515;-67
2022/07/23 08:48:50;;;;;;;8.50;6.53;;;23.50;83.90;;;;;;5071617;28;20452;-67
2022/07/23 08:51:18;;;;;;;8.37;6.60;;;23.50;84.40;;;;;;5071041;28;20471;-67
2022/07/23 08:53:46;;;;;;;6.50;5.90;;;23.60;85.40;;;;;;5058715;28;20836;-68
2022/07/23 08:56:16;;;;;;;7.70;6.80;;;23.60;86.10;;;;;;5070118;28;20824;-67
2022/07/23 08:58:43;;;;;;;8.70;7.40;;;23.50;86.20;;;;;;5068284;28;20451;-67
2022/07/23 09:01:11;;;;;;;10.27;6.83;;;23.50;86.50;;;;;;5070230;28;20419;-67
2022/07/23 09:03:39;;;;;;;7.23;6.27;;;23.60;86.90;;;;;;5070548;28;20447;-66
2022/07/23 09:06:07;;;;;;;7.50;6.73;;;23.70;88.10;;;;;;5071441;28;20664;-67
2022/07/23 09:08:39;;;;;;;8.37;7.53;;;23.80;88.40;;;;;;5070965;28;20918;-67
2022/07/23 09:11:09;;;;;;;6.97;6.27;;;23.80;87.90;;;;;;5071261;28;20480;-68
2022/07/23 09:13:40;;;;;;;7.20;6.50;;;23.90;86.40;;;;;;5070819;28;20512;-67
2022/07/23 09:16:10;;;;;;;6.77;6.13;;;23.90;85.60;;;;;;5067240;28;20466;-66
2022/07/23 09:18:44;;;;;;;6.83;6.13;;;23.90;85.70;;;;;;5071195;28;20905;-66
2022/07/23 09:21:16;;;;;;;7.80;7.00;;;23.90;86.10;;;;;;5070989;28;20501;-67
2022/07/23 09:23:46;;;;;;;7.37;6.60;;;24.00;85.70;;;;;;5070144;28;20451;-67
2022/07/23 09:26:31;;;;;;;7.93;7.00;;;24.20;84.60;;;;;;5070831;28;20497;-69
2022/07/23 09:29:02;;;;;;;7.47;6.70;;;24.40;83.60;;;;;;5070022;28;20439;-65
2022/07/23 09:31:34;;;;;;;7.90;6.20;;;24.70;84.00;;;;;;5070775;28;20483;-65
2022/07/23 09:34:09;;;;;;;6.30;4.70;;;24.80;81.90;;;;;;5067338;28;20435;-65
2022/07/23 09:36:36;;;;;;;7.07;5.73;;;24.80;80.00;;;;;;5070455;28;20700;-65
2022/07/23 09:39:06;;;;;;;7.50;5.70;;;24.80;78.80;;;;;;5070435;28;20494;-66
2022/07/23 09:41:37;;;;;;;6.53;5.93;;;24.80;79.60;;;;;;5070035;28;20534;-66
2022/07/23 09:44:10;;;;;;;7.70;6.10;;;24.90;78.90;;;;;;5071121;28;20934;-70
2022/07/23 09:46:40;;;;;;;7.00;6.30;;;24.90;79.30;;;;;;5070974;28;20456;-65
2022/07/23 09:49:16;;;;;;;7.20;5.53;;;25.00;80.20;;;;;;5070830;28;20447;-64
2022/07/23 09:51:54;;;;;;;6.30;5.20;;;25.10;80.30;;;;;;5070804;28;20483;-66
2022/07/23 09:54:26;;;;;;;6.90;6.07;;;25.10;80.50;;;;;;5070924;28;20918;-65
2022/07/23 09:56:54;;;;;;;7.70;5.53;;;25.10;80.30;;;;;;5069644;28;20431;-65
2022/07/23 09:59:28;;;;;;;7.03;6.30;;;25.10;80.40;;;;;;5070435;28;20451;-65
2022/07/23 10:02:00;;;;;;;6.97;5.87;;;25.10;79.60;;;;;;5070890;28;21009;-65
2022/07/23 10:04:28;;;;;;;7.30;6.60;;;25.20;79.70;;;;;;5070638;28;20448;-64
2022/07/23 10:06:58;;;;;;;8.70;6.87;;;25.20;80.00;;;;;;5071424;28;20447;-65
2022/07/23 10:09:30;;;;;;;8.50;6.10;;;25.30;80.70;;;;;;5068389;28;20468;-67
2022/07/23 10:14:46;;;;;;;8.27;7.30;;;25.40;81.40;;;;;;5069828;28;20423;-69
2022/07/23 10:17:13;;;;;;;9.50;6.50;;;25.40;81.10;;;;;;5066262;28;20443;-67
2022/07/23 10:19:41;;;;;;;8.00;6.13;;;25.50;80.70;;;;;;5071581;28;20486;-71
2022/07/23 10:22:11;;;;;;;5.90;5.30;;;25.60;80.30;;;;;;5071370;28;20444;-67
2022/07/23 10:24:54;;;;;;;5.63;4.80;;;25.70;79.90;;;;;;5070645;28;20513;-65
2022/07/23 10:28:07;;;;;;;6.00;5.30;;;25.90;78.10;;;;;;5070138;28;20486;-65
2022/07/23 10:30:42;;;;;;;6.77;6.00;;;26.10;77.60;;;;;;5009166;28;20502;-65
2022/07/23 10:33:24;;;;;;;11.70;6.17;;;26.30;78.30;;;;;;5066866;28;20440;-65
2022/07/23 10:35:59;;;;;;;7.83;6.93;;;26.50;76.80;;;;;;5071598;28;20485;-65
2022/07/23 10:38:30;;;;;;;7.07;6.37;;;26.70;75.70;;;;;;5071059;28;20435;-65
2022/07/23 10:41:00;;;;;;;7.20;6.03;;;26.90;75.00;;;;;;5071016;28;20448;-67
2022/07/23 10:43:29;;;;;;;6.50;5.87;;;27.00;73.70;;;;;;5071014;28;20436;-67
2022/07/23 10:45:56;;;;;;;6.70;6.00;;;27.10;72.10;;;;;;5071286;28;20933;-67
2022/07/23 10:48:26;;;;;;;7.17;6.47;;;27.20;71.20;;;;;;5070863;28;20462;-67
2022/07/23 10:51:14;;;;;;;10.70;7.17;;;27.20;71.30;;;;;;5071351;28;20490;-67
2022/07/23 10:53:59;;;;;;;14.90;6.90;;;27.20;71.40;;;;;;5071104;28;20440;-67
2022/07/23 10:57:07;;;;;;;7.40;6.70;;;27.10;70.80;;;;;;5070478;28;20527;-67
2022/07/23 11:00:12;;;;;;;7.70;6.40;;;27.00;71.10;;;;;;5042248;28;20436;-67
2022/07/23 11:02:40;;;;;;;7.37;6.20;;;26.90;70.90;;;;;;5073866;28;20497;-67
2022/07/23 11:05:10;;;;;;;7.93;6.07;;;26.90;71.70;;;;;;5074618;28;20455;-67
2022/07/23 11:08:03;;;;;;;8.40;6.90;;;26.80;71.20;;;;;;5074058;28;20458;-68
2022/07/23 11:10:35;;;;;;;7.90;6.33;;;26.70;70.40;;;;;;5074678;28;20529;-68
2022/07/23 11:13:31;;;;;;;7.00;6.27;;;26.70;70.80;;;;;;5069605;28;20432;-67
2022/07/23 11:16:13;;;;;;;8.00;6.83;;;26.90;71.50;;;;;;5071128;28;20436;-67
2022/07/23 11:19:01;;;;;;;7.33;6.33;;;27.10;71.70;;;;;;5074163;28;20446;-68
2022/07/23 11:21:51;;;;;;;8.17;7.30;;;27.30;71.20;;;;;;5061041;28;20439;-67
2022/07/23 11:24:23;;;;;;;7.00;6.30;;;27.30;66.20;;;;;;5073708;28;20509;-69
2022/07/23 11:27:03;;;;;;;7.03;6.33;;;27.10;65.30;;;;;;5073932;28;20470;-67
2022/07/23 11:29:44;;;;;;;7.10;5.97;;;27.20;67.10;;;;;;5073551;28;20930;-67
2022/07/23 11:32:33;;;;;;;7.47;6.03;;;27.40;66.90;;;;;;5074122;28;20479;-67
2022/07/23 11:35:00;;;;;;;7.03;6.33;;;27.30;62.70;;;;;;5073774;28;20792;-68
2022/07/23 11:37:34;;;;;;;7.77;6.30;;;27.30;63.90;;;;;;5074210;28;20485;-67
2022/07/23 11:40:02;;;;;;;8.20;6.30;;;27.20;64.10;;;;;;5072854;28;20457;-68
2022/07/23 11:42:29;;;;;;;7.03;6.33;;;27.20;64.60;;;;;;5073873;28;20440;-68
2022/07/23 11:44:56;;;;;;;7.17;6.47;;;27.10;64.90;;;;;;5073472;28;20440;-67
2022/07/23 11:47:26;;;;;;;7.33;6.57;;;27.20;65.40;;;;;;5073955;28;20780;-67
2022/07/23 11:49:55;;;;;;;7.03;6.00;;;27.20;63.70;;;;;;5073285;28;20463;-67
2022/07/23 11:52:23;;;;;;;7.40;5.40;;;27.30;64.60;;;;;;5073551;28;20483;-67
2022/07/23 11:54:55;;;;;;;9.70;5.60;;;27.50;64.90;;;;;;5073695;28;20869;-67
2022/07/23 11:57:26;;;;;;;6.80;5.97;;;27.60;65.50;;;;;;5073295;28;20525;-68
2022/07/23 11:59:57;;;;;;;8.60;6.03;;;27.60;64.60;;;;;;5073047;28;20522;-67
2022/07/23 12:02:26;;;;;;;8.43;5.90;;;27.60;62.30;;;;;;5074045;28;20497;-67
2022/07/23 12:04:55;;;;;;;6.13;5.40;;;27.40;62.70;;;;;;5072896;28;20481;-67
2022/07/23 12:07:31;;;;;;;6.73;6.03;;;27.40;64.20;;;;;;5073049;28;20444;-67
2022/07/23 12:09:59;;;;;;;6.70;5.50;;;27.40;65.60;;;;;;5073220;28;20432;-68
2022/07/23 12:12:36;;;;;;;8.03;6.17;;;27.30;64.30;;;;;;5072772;28;20484;-67
2022/07/23 12:15:04;;;;;;;7.60;6.03;;;27.30;63.50;;;;;;5073440;28;20446;-67
2022/07/23 12:17:35;;;;;;;6.73;5.33;;;27.10;65.60;;;;;;5072779;28;20795;-67
2022/07/23 12:20:07;;;;;;;7.27;5.20;;;27.10;65.40;;;;;;5073405;28;20440;-67
2022/07/23 12:22:48;;;;;;;5.83;4.70;;;27.00;64.90;;;;;;5072687;28;20447;-67
2022/07/23 12:25:17;;;;;;;6.10;4.67;;;26.80;62.90;;;;;;5069789;28;20443;-72
2022/07/23 12:27:45;;;;;;;5.20;4.70;;;26.60;62.50;;;;;;5071806;28;20451;-71
2022/07/23 12:30:28;;;;;;;4.73;4.13;;;26.50;62.30;;;;;;5072794;28;20918;-67
2022/07/23 12:32:59;;;;;;;5.40;4.30;;;26.30;62.10;;;;;;5072217;28;20470;-66
2022/07/23 12:35:34;;;;;;;5.93;4.43;;;26.20;61.90;;;;;;5072576;28;20440;-66
2022/07/23 12:38:03;;;;;;;6.20;4.33;;;26.00;60.90;;;;;;5073064;28;20526;-67
2022/07/23 12:40:34;;;;;;;7.00;4.43;;;25.90;62.50;;;;;;5072096;28;20439;-68
2022/07/23 12:43:09;;;;;;;8.27;5.33;;;25.90;64.70;;;;;;5066261;28;20436;-67
2022/07/23 12:45:50;;;;;;;6.43;4.03;;;25.80;65.30;;;;;;5062247;28;20534;-70
2022/07/23 12:48:24;;;;;;;6.60;4.57;;;25.70;66.00;;;;;;5072669;28;20518;-67
2022/07/23 12:50:59;;;;;;;6.07;4.00;;;25.60;67.00;;;;;;5072527;28;20540;-70
2022/07/23 12:53:28;;;;;;;5.40;4.43;;;25.50;66.60;;;;;;5068656;28;20454;-67
2022/07/23 12:56:03;;;;;;;8.33;4.50;;;25.40;67.30;;;;;;5072158;28;20996;-69
2022/07/23 12:58:41;;;;;;;5.47;4.60;;;25.30;66.50;;;;;;5072766;28;20848;-67
2022/07/23 13:01:09;;;;;;;6.37;4.47;;;25.30;66.00;;;;;;5072133;28;20443;-67